sensor_id;sensor_type;location;lat;lon;timestamp;P1;durP1;ratioP1;P2;durP2;ratioP2
39880;SDS011;25554;44.954;10.068;2023-02-28T00:00:53;11.90;;;6.90;;
39880;SDS011;25554;44.954;10.068;2023-02-28T00:03:20;10.20;;;6.63;;
39880;SDS011;25554;44.954;10.068;2023-02-28T00:08:13;9.48;;;6.20;;
39880;SDS011;25554;44.954;10.068;2023-02-28T00:10:39;16.98;;;6.65;;
39880;SDS011;25554;44.954;10.068;2023-02-28T00:13:06;11.40;;;6.65;;
39880;SDS011;25554;44.954;10.068;2023-02-28T00:15:33;15.65;;;7.60;;
39880;SDS011;25554;44.954;10.068;2023-02-28T00:18:00;10.80;;;6.72;;
39880;SDS011;25554;44.954;10.068;2023-02-28T00:20:26;9.75;;;6.00;;
39880;SDS011;25554;44.954;10.068;2023-02-28T00:22:53;14.00;;;6.65;;
39880;SDS011;25554;44.954;10.068;2023-02-28T00:25:21;11.48;;;7.13;;
39880;SDS011;25554;44.954;10.068;2023-02-28T00:27:49;11.98;;;7.45;;
39880;SDS011;25554;44.954;10.068;2023-02-28T00:32:47;12.00;;;6.80;;
39880;SDS011;25554;44.954;10.068;2023-02-28T00:35:14;11.10;;;7.65;;
39880;SDS011;25554;44.954;10.068;2023-02-28T00:37:41;11.00;;;7.07;;
39880;SDS011;25554;44.954;10.068;2023-02-28T00:40:08;8.70;;;5.95;;
39880;SDS011;25554;44.954;10.068;2023-02-28T00:42:35;11.38;;;6.70;;
39880;SDS011;25554;44.954;10.068;2023-02-28T00:45:02;12.45;;;7.03;;
39880;SDS011;25554;44.954;10.068;2023-02-28T00:47:30;12.23;;;7.10;;
39880;SDS011;25554;44.954;10.068;2023-02-28T00:49:57;12.15;;;6.93;;
39880;SDS011;25554;44.954;10.068;2023-02-28T00:52:23;11.93;;;7.10;;
39880;SDS011;25554;44.954;10.068;2023-02-28T00:54:50;10.40;;;6.93;;
39880;SDS011;25554;44.954;10.068;2023-02-28T00:57:16;11.57;;;6.93;;
39880;SDS011;25554;44.954;10.068;2023-02-28T00:59:43;10.27;;;7.03;;
39880;SDS011;25554;44.954;10.068;2023-02-28T01:02:10;13.77;;;7.65;;
39880;SDS011;25554;44.954;10.068;2023-02-28T01:04:36;14.85;;;8.13;;
39880;SDS011;25554;44.954;10.068;2023-02-28T01:09:29;11.48;;;7.43;;
39880;SDS011;25554;44.954;10.068;2023-02-28T01:11:57;15.02;;;8.68;;
39880;SDS011;25554;44.954;10.068;2023-02-28T01:14:24;16.58;;;8.20;;
39880;SDS011;25554;44.954;10.068;2023-02-28T01:16:51;11.93;;;7.43;;
39880;SDS011;25554;44.954;10.068;2023-02-28T01:19:17;16.77;;;8.25;;
39880;SDS011;25554;44.954;10.068;2023-02-28T01:21:45;10.38;;;6.90;;
39880;SDS011;25554;44.954;10.068;2023-02-28T01:24:12;17.88;;;7.90;;
39880;SDS011;25554;44.954;10.068;2023-02-28T01:26:39;14.93;;;7.50;;
39880;SDS011;25554;44.954;10.068;2023-02-28T01:29:06;13.25;;;7.68;;
39880;SDS011;25554;44.954;10.068;2023-02-28T01:31:33;14.63;;;7.90;;
39880;SDS011;25554;44.954;10.068;2023-02-28T01:34:00;13.40;;;6.88;;
39880;SDS011;25554;44.954;10.068;2023-02-28T01:36:28;14.68;;;7.50;;
39880;SDS011;25554;44.954;10.068;2023-02-28T01:38:55;14.75;;;7.60;;
39880;SDS011;25554;44.954;10.068;2023-02-28T01:41:23;12.20;;;7.68;;
39880;SDS011;25554;44.954;10.068;2023-02-28T01:43:54;10.27;;;6.90;;
39880;SDS011;25554;44.954;10.068;2023-02-28T01:46:29;13.98;;;7.55;;
39880;SDS011;25554;44.954;10.068;2023-02-28T01:49:06;14.15;;;8.02;;
39880;SDS011;25554;44.954;10.068;2023-02-28T01:54:05;12.80;;;7.53;;
39880;SDS011;25554;44.954;10.068;2023-02-28T01:56:41;16.45;;;7.47;;
39880;SDS011;25554;44.954;10.068;2023-02-28T01:59:33;11.50;;;7.90;;
39880;SDS011;25554;44.954;10.068;2023-02-28T02:02:07;17.38;;;7.28;;
39880;SDS011;25554;44.954;10.068;2023-02-28T02:04:55;14.23;;;7.53;;
39880;SDS011;25554;44.954;10.068;2023-02-28T02:08:01;14.75;;;7.47;;
39880;SDS011;25554;44.954;10.068;2023-02-28T02:11:00;12.70;;;7.88;;
39880;SDS011;25554;44.954;10.068;2023-02-28T02:33:21;14.25;;;7.65;;
39880;SDS011;25554;44.954;10.068;2023-02-28T02:36:35;11.98;;;7.20;;
39880;SDS011;25554;44.954;10.068;2023-02-28T02:44:02;11.43;;;7.43;;
39880;SDS011;25554;44.954;10.068;2023-02-28T02:46:41;12.90;;;7.60;;
39880;SDS011;25554;44.954;10.068;2023-02-28T02:49:11;17.90;;;8.93;;
39880;SDS011;25554;44.954;10.068;2023-02-28T02:51:47;15.48;;;8.73;;
39880;SDS011;25554;44.954;10.068;2023-02-28T02:54:16;14.15;;;7.82;;
39880;SDS011;25554;44.954;10.068;2023-02-28T02:56:47;12.57;;;8.27;;
39880;SDS011;25554;44.954;10.068;2023-02-28T02:59:16;16.15;;;8.65;;
39880;SDS011;25554;44.954;10.068;2023-02-28T03:01:52;13.43;;;8.02;;
39880;SDS011;25554;44.954;10.068;2023-02-28T03:04:23;12.10;;;8.18;;
39880;SDS011;25554;44.954;10.068;2023-02-28T03:06:52;12.07;;;8.32;;
39880;SDS011;25554;44.954;10.068;2023-02-28T03:09:22;13.80;;;7.80;;
39880;SDS011;25554;44.954;10.068;2023-02-28T03:11:49;13.77;;;8.90;;
39880;SDS011;25554;44.954;10.068;2023-02-28T03:19:34;13.73;;;8.00;;
39880;SDS011;25554;44.954;10.068;2023-02-28T03:27:58;14.52;;;8.90;;
39880;SDS011;25554;44.954;10.068;2023-02-28T03:30:52;13.02;;;7.70;;
39880;SDS011;25554;44.954;10.068;2023-02-28T03:33:44;13.68;;;8.90;;
39880;SDS011;25554;44.954;10.068;2023-02-28T03:36:38;14.23;;;7.50;;
39880;SDS011;25554;44.954;10.068;2023-02-28T03:39:13;14.18;;;8.85;;
39880;SDS011;25554;44.954;10.068;2023-02-28T03:42:02;13.80;;;8.20;;
39880;SDS011;25554;44.954;10.068;2023-02-28T03:44:40;15.43;;;7.88;;
39880;SDS011;25554;44.954;10.068;2023-02-28T03:47:17;12.40;;;7.82;;
39880;SDS011;25554;44.954;10.068;2023-02-28T03:49:53;14.25;;;7.60;;
39880;SDS011;25554;44.954;10.068;2023-02-28T03:52:27;11.32;;;7.75;;
39880;SDS011;25554;44.954;10.068;2023-02-28T03:54:59;31.65;;;9.68;;
39880;SDS011;25554;44.954;10.068;2023-02-28T04:00:12;12.32;;;8.50;;
39880;SDS011;25554;44.954;10.068;2023-02-28T04:02:45;28.45;;;9.18;;
39880;SDS011;25554;44.954;10.068;2023-02-28T04:05:11;18.40;;;8.43;;
39880;SDS011;25554;44.954;10.068;2023-02-28T04:10:04;14.65;;;6.97;;
39880;SDS011;25554;44.954;10.068;2023-02-28T04:12:31;13.25;;;7.82;;
39880;SDS011;25554;44.954;10.068;2023-02-28T04:14:57;14.82;;;7.47;;
39880;SDS011;25554;44.954;10.068;2023-02-28T04:17:24;14.95;;;7.78;;
39880;SDS011;25554;44.954;10.068;2023-02-28T04:19:50;11.60;;;7.43;;
39880;SDS011;25554;44.954;10.068;2023-02-28T04:22:17;12.77;;;7.07;;
39880;SDS011;25554;44.954;10.068;2023-02-28T04:24:43;13.32;;;7.10;;
39880;SDS011;25554;44.954;10.068;2023-02-28T04:27:10;12.77;;;7.22;;
39880;SDS011;25554;44.954;10.068;2023-02-28T04:29:37;11.52;;;7.30;;
39880;SDS011;25554;44.954;10.068;2023-02-28T04:32:03;16.58;;;7.80;;
39880;SDS011;25554;44.954;10.068;2023-02-28T04:34:31;12.63;;;7.20;;
39880;SDS011;25554;44.954;10.068;2023-02-28T04:36:58;10.80;;;7.28;;
39880;SDS011;25554;44.954;10.068;2023-02-28T04:39:25;13.40;;;8.18;;
39880;SDS011;25554;44.954;10.068;2023-02-28T04:41:52;16.88;;;7.50;;
39880;SDS011;25554;44.954;10.068;2023-02-28T04:44:18;13.27;;;7.40;;
39880;SDS011;25554;44.954;10.068;2023-02-28T04:46:47;14.40;;;7.90;;
39880;SDS011;25554;44.954;10.068;2023-02-28T04:49:14;11.70;;;6.60;;
39880;SDS011;25554;44.954;10.068;2023-02-28T04:51:41;12.38;;;8.30;;
39880;SDS011;25554;44.954;10.068;2023-02-28T04:54:07;13.18;;;7.57;;
39880;SDS011;25554;44.954;10.068;2023-02-28T04:56:34;11.68;;;7.18;;
39880;SDS011;25554;44.954;10.068;2023-02-28T04:59:01;10.52;;;6.45;;
39880;SDS011;25554;44.954;10.068;2023-02-28T05:01:32;12.50;;;7.00;;
39880;SDS011;25554;44.954;10.068;2023-02-28T05:04:01;10.13;;;6.65;;
39880;SDS011;25554;44.954;10.068;2023-02-28T05:06:29;10.73;;;6.85;;
39880;SDS011;25554;44.954;10.068;2023-02-28T05:08:57;10.02;;;6.85;;
39880;SDS011;25554;44.954;10.068;2023-02-28T05:11:31;9.07;;;6.18;;
39880;SDS011;25554;44.954;10.068;2023-02-28T05:14:03;9.88;;;7.10;;
39880;SDS011;25554;44.954;10.068;2023-02-28T05:16:36;13.38;;;6.18;;
39880;SDS011;25554;44.954;10.068;2023-02-28T05:19:02;10.23;;;6.32;;
39880;SDS011;25554;44.954;10.068;2023-02-28T05:21:33;9.95;;;6.47;;
39880;SDS011;25554;44.954;10.068;2023-02-28T05:24:02;10.55;;;6.80;;
39880;SDS011;25554;44.954;10.068;2023-02-28T05:26:35;9.77;;;6.45;;
39880;SDS011;25554;44.954;10.068;2023-02-28T05:29:03;10.55;;;7.10;;
39880;SDS011;25554;44.954;10.068;2023-02-28T05:31:30;10.65;;;6.47;;
39880;SDS011;25554;44.954;10.068;2023-02-28T05:33:57;14.52;;;6.72;;
39880;SDS011;25554;44.954;10.068;2023-02-28T05:36:23;10.90;;;6.43;;
39880;SDS011;25554;44.954;10.068;2023-02-28T05:38:50;11.70;;;6.57;;
39880;SDS011;25554;44.954;10.068;2023-02-28T05:41:17;10.00;;;6.80;;
39880;SDS011;25554;44.954;10.068;2023-02-28T05:43:45;11.50;;;7.05;;
39880;SDS011;25554;44.954;10.068;2023-02-28T05:46:12;17.27;;;7.65;;
39880;SDS011;25554;44.954;10.068;2023-02-28T05:48:39;11.25;;;6.63;;
39880;SDS011;25554;44.954;10.068;2023-02-28T05:51:11;14.25;;;6.88;;
39880;SDS011;25554;44.954;10.068;2023-02-28T05:53:46;12.60;;;6.53;;
39880;SDS011;25554;44.954;10.068;2023-02-28T05:56:15;11.63;;;6.72;;
39880;SDS011;25554;44.954;10.068;2023-02-28T05:58:42;21.52;;;7.90;;
39880;SDS011;25554;44.954;10.068;2023-02-28T06:04:03;14.02;;;6.97;;
39880;SDS011;25554;44.954;10.068;2023-02-28T06:06:35;13.82;;;7.57;;
39880;SDS011;25554;44.954;10.068;2023-02-28T06:09:05;13.38;;;7.22;;
39880;SDS011;25554;44.954;10.068;2023-02-28T06:11:34;12.65;;;7.07;;
39880;SDS011;25554;44.954;10.068;2023-02-28T06:14:01;17.15;;;8.63;;
39880;SDS011;25554;44.954;10.068;2023-02-28T06:16:34;12.13;;;7.30;;
39880;SDS011;25554;44.954;10.068;2023-02-28T06:19:02;13.25;;;7.13;;
39880;SDS011;25554;44.954;10.068;2023-02-28T06:21:29;10.65;;;6.53;;
39880;SDS011;25554;44.954;10.068;2023-02-28T06:23:56;10.23;;;7.18;;
39880;SDS011;25554;44.954;10.068;2023-02-28T06:26:24;16.05;;;8.60;;
39880;SDS011;25554;44.954;10.068;2023-02-28T06:28:50;11.88;;;7.25;;
39880;SDS011;25554;44.954;10.068;2023-02-28T06:31:17;16.98;;;7.60;;
39880;SDS011;25554;44.954;10.068;2023-02-28T06:33:44;21.77;;;8.68;;
39880;SDS011;25554;44.954;10.068;2023-02-28T06:36:11;14.85;;;7.82;;
39880;SDS011;25554;44.954;10.068;2023-02-28T06:38:39;16.33;;;7.15;;
39880;SDS011;25554;44.954;10.068;2023-02-28T06:41:07;11.80;;;6.72;;
39880;SDS011;25554;44.954;10.068;2023-02-28T06:43:35;13.55;;;7.93;;
39880;SDS011;25554;44.954;10.068;2023-02-28T06:46:05;23.95;;;8.57;;
39880;SDS011;25554;44.954;10.068;2023-02-28T06:48:33;13.90;;;7.57;;
39880;SDS011;25554;44.954;10.068;2023-02-28T06:51:08;12.20;;;7.82;;
39880;SDS011;25554;44.954;10.068;2023-02-28T06:53:37;11.75;;;7.97;;
39880;SDS011;25554;44.954;10.068;2023-02-28T06:56:08;13.75;;;8.27;;
39880;SDS011;25554;44.954;10.068;2023-02-28T06:58:36;10.65;;;7.15;;
39880;SDS011;25554;44.954;10.068;2023-02-28T07:01:03;11.10;;;7.15;;
39880;SDS011;25554;44.954;10.068;2023-02-28T07:03:30;12.25;;;7.28;;
39880;SDS011;25554;44.954;10.068;2023-02-28T07:05:56;11.40;;;7.75;;
39880;SDS011;25554;44.954;10.068;2023-02-28T07:08:23;14.00;;;8.05;;
39880;SDS011;25554;44.954;10.068;2023-02-28T07:10:53;14.50;;;8.80;;
39880;SDS011;25554;44.954;10.068;2023-02-28T07:13:20;10.15;;;7.38;;
39880;SDS011;25554;44.954;10.068;2023-02-28T07:15:53;12.18;;;7.88;;
39880;SDS011;25554;44.954;10.068;2023-02-28T07:18:20;11.57;;;8.07;;
39880;SDS011;25554;44.954;10.068;2023-02-28T07:20:47;12.57;;;8.73;;
39880;SDS011;25554;44.954;10.068;2023-02-28T07:25:39;13.23;;;8.65;;
39880;SDS011;25554;44.954;10.068;2023-02-28T07:30:32;12.88;;;8.48;;
39880;SDS011;25554;44.954;10.068;2023-02-28T07:32:58;12.27;;;8.27;;
39880;SDS011;25554;44.954;10.068;2023-02-28T07:35:25;19.42;;;10.32;;
39880;SDS011;25554;44.954;10.068;2023-02-28T07:37:52;14.68;;;9.63;;
39880;SDS011;25554;44.954;10.068;2023-02-28T07:40:18;14.43;;;9.05;;
39880;SDS011;25554;44.954;10.068;2023-02-28T07:42:45;13.88;;;9.75;;
39880;SDS011;25554;44.954;10.068;2023-02-28T07:45:16;14.88;;;8.45;;
39880;SDS011;25554;44.954;10.068;2023-02-28T07:47:43;20.33;;;9.30;;
39880;SDS011;25554;44.954;10.068;2023-02-28T07:50:11;12.05;;;8.45;;
39880;SDS011;25554;44.954;10.068;2023-02-28T07:52:39;16.23;;;9.30;;
39880;SDS011;25554;44.954;10.068;2023-02-28T07:55:06;14.10;;;8.13;;
39880;SDS011;25554;44.954;10.068;2023-02-28T07:57:34;12.23;;;8.25;;
39880;SDS011;25554;44.954;10.068;2023-02-28T08:00:02;14.23;;;9.00;;
39880;SDS011;25554;44.954;10.068;2023-02-28T08:02:37;13.63;;;9.13;;
39880;SDS011;25554;44.954;10.068;2023-02-28T08:05:04;14.10;;;8.73;;
39880;SDS011;25554;44.954;10.068;2023-02-28T08:07:31;15.93;;;9.02;;
39880;SDS011;25554;44.954;10.068;2023-02-28T08:09:59;13.40;;;8.82;;
39880;SDS011;25554;44.954;10.068;2023-02-28T08:12:25;14.40;;;8.40;;
39880;SDS011;25554;44.954;10.068;2023-02-28T08:14:52;13.52;;;9.23;;
39880;SDS011;25554;44.954;10.068;2023-02-28T08:17:18;13.02;;;9.20;;
39880;SDS011;25554;44.954;10.068;2023-02-28T08:19:45;14.07;;;8.45;;
39880;SDS011;25554;44.954;10.068;2023-02-28T08:22:12;14.73;;;9.13;;
39880;SDS011;25554;44.954;10.068;2023-02-28T08:24:40;15.07;;;9.45;;
39880;SDS011;25554;44.954;10.068;2023-02-28T08:27:08;13.70;;;8.70;;
39880;SDS011;25554;44.954;10.068;2023-02-28T08:29:36;16.25;;;8.45;;
39880;SDS011;25554;44.954;10.068;2023-02-28T08:32:04;12.25;;;8.32;;
39880;SDS011;25554;44.954;10.068;2023-02-28T08:34:32;11.82;;;8.23;;
39880;SDS011;25554;44.954;10.068;2023-02-28T08:36:58;11.65;;;7.72;;
39880;SDS011;25554;44.954;10.068;2023-02-28T08:39:25;10.88;;;7.70;;
39880;SDS011;25554;44.954;10.068;2023-02-28T08:44:17;12.73;;;8.02;;
39880;SDS011;25554;44.954;10.068;2023-02-28T08:46:44;12.93;;;8.20;;
39880;SDS011;25554;44.954;10.068;2023-02-28T08:51:38;13.15;;;7.65;;
39880;SDS011;25554;44.954;10.068;2023-02-28T08:54:04;10.73;;;7.50;;
39880;SDS011;25554;44.954;10.068;2023-02-28T08:56:31;12.90;;;8.23;;
39880;SDS011;25554;44.954;10.068;2023-02-28T08:58:57;12.63;;;8.25;;
39880;SDS011;25554;44.954;10.068;2023-02-28T09:01:26;10.25;;;7.82;;
39880;SDS011;25554;44.954;10.068;2023-02-28T09:03:54;10.73;;;8.25;;
39880;SDS011;25554;44.954;10.068;2023-02-28T09:06:22;15.52;;;9.35;;
39880;SDS011;25554;44.954;10.068;2023-02-28T09:08:51;14.10;;;8.93;;
39880;SDS011;25554;44.954;10.068;2023-02-28T09:11:18;11.63;;;8.35;;
39880;SDS011;25554;44.954;10.068;2023-02-28T09:13:45;14.48;;;7.95;;
39880;SDS011;25554;44.954;10.068;2023-02-28T09:16:13;12.85;;;7.60;;
39880;SDS011;25554;44.954;10.068;2023-02-28T09:18:41;14.63;;;8.15;;
39880;SDS011;25554;44.954;10.068;2023-02-28T09:21:12;11.68;;;8.20;;
39880;SDS011;25554;44.954;10.068;2023-02-28T09:23:41;10.82;;;7.75;;
39880;SDS011;25554;44.954;10.068;2023-02-28T09:26:13;9.95;;;8.38;;
39880;SDS011;25554;44.954;10.068;2023-02-28T09:28:41;12.55;;;8.32;;
39880;SDS011;25554;44.954;10.068;2023-02-28T09:31:11;12.50;;;7.80;;
39880;SDS011;25554;44.954;10.068;2023-02-28T09:33:39;11.48;;;8.32;;
39880;SDS011;25554;44.954;10.068;2023-02-28T09:36:06;11.57;;;8.23;;
39880;SDS011;25554;44.954;10.068;2023-02-28T09:38:33;11.75;;;8.27;;
39880;SDS011;25554;44.954;10.068;2023-02-28T09:41:01;15.80;;;9.65;;
39880;SDS011;25554;44.954;10.068;2023-02-28T09:43:34;11.35;;;8.07;;
39880;SDS011;25554;44.954;10.068;2023-02-28T09:46:19;10.43;;;7.40;;
39880;SDS011;25554;44.954;10.068;2023-02-28T09:48:56;12.25;;;8.85;;
39880;SDS011;25554;44.954;10.068;2023-02-28T09:54:15;11.48;;;7.95;;
39880;SDS011;25554;44.954;10.068;2023-02-28T09:57:11;10.35;;;7.55;;
39880;SDS011;25554;44.954;10.068;2023-02-28T10:13:04;13.40;;;7.78;;
39880;SDS011;25554;44.954;10.068;2023-02-28T10:15:54;11.68;;;7.25;;
39880;SDS011;25554;44.954;10.068;2023-02-28T10:18:25;11.70;;;7.45;;
39880;SDS011;25554;44.954;10.068;2023-02-28T10:20:56;10.55;;;7.53;;
39880;SDS011;25554;44.954;10.068;2023-02-28T10:23:31;12.48;;;7.60;;
39880;SDS011;25554;44.954;10.068;2023-02-28T10:26:13;12.45;;;8.20;;
39880;SDS011;25554;44.954;10.068;2023-02-28T10:28:42;11.77;;;8.02;;
39880;SDS011;25554;44.954;10.068;2023-02-28T10:31:18;10.52;;;7.28;;
39880;SDS011;25554;44.954;10.068;2023-02-28T10:33:45;14.48;;;7.80;;
39880;SDS011;25554;44.954;10.068;2023-02-28T10:36:16;11.27;;;7.68;;
39880;SDS011;25554;44.954;10.068;2023-02-28T10:38:45;10.20;;;7.32;;
39880;SDS011;25554;44.954;10.068;2023-02-28T10:41:17;15.10;;;8.27;;
39880;SDS011;25554;44.954;10.068;2023-02-28T10:46:47;12.15;;;8.07;;
39880;SDS011;25554;44.954;10.068;2023-02-28T10:49:49;11.43;;;7.35;;
39880;SDS011;25554;44.954;10.068;2023-02-28T10:52:12;15.18;;;9.15;;
39880;SDS011;25554;44.954;10.068;2023-02-28T10:54:38;11.88;;;7.93;;
39880;SDS011;25554;44.954;10.068;2023-02-28T10:57:22;11.00;;;8.02;;
39880;SDS011;25554;44.954;10.068;2023-02-28T11:04:58;11.20;;;7.35;;
39880;SDS011;25554;44.954;10.068;2023-02-28T11:09:52;10.82;;;8.07;;
39880;SDS011;25554;44.954;10.068;2023-02-28T11:12:21;10.88;;;8.00;;
39880;SDS011;25554;44.954;10.068;2023-02-28T11:14:52;12.98;;;9.63;;
39880;SDS011;25554;44.954;10.068;2023-02-28T11:17:39;12.88;;;8.65;;
39880;SDS011;25554;44.954;10.068;2023-02-28T11:20:14;11.98;;;8.60;;
39880;SDS011;25554;44.954;10.068;2023-02-28T11:22:47;12.15;;;8.45;;
39880;SDS011;25554;44.954;10.068;2023-02-28T11:27:56;12.77;;;8.65;;
39880;SDS011;25554;44.954;10.068;2023-02-28T11:30:33;9.30;;;7.63;;
39880;SDS011;25554;44.954;10.068;2023-02-28T11:33:21;13.50;;;8.70;;
39880;SDS011;25554;44.954;10.068;2023-02-28T11:35:51;12.73;;;8.70;;
39880;SDS011;25554;44.954;10.068;2023-02-28T11:38:21;13.90;;;8.85;;
39880;SDS011;25554;44.954;10.068;2023-02-28T11:51:28;13.20;;;8.45;;
39880;SDS011;25554;44.954;10.068;2023-02-28T11:54:09;14.75;;;8.65;;
39880;SDS011;25554;44.954;10.068;2023-02-28T11:56:53;16.17;;;8.65;;
39880;SDS011;25554;44.954;10.068;2023-02-28T12:02:30;14.55;;;9.02;;
39880;SDS011;25554;44.954;10.068;2023-02-28T12:05:27;11.45;;;8.60;;
39880;SDS011;25554;44.954;10.068;2023-02-28T12:16:50;12.80;;;9.10;;
39880;SDS011;25554;44.954;10.068;2023-02-28T12:19:21;11.13;;;8.18;;
39880;SDS011;25554;44.954;10.068;2023-02-28T12:22:05;12.07;;;9.25;;
39880;SDS011;25554;44.954;10.068;2023-02-28T12:27:42;17.30;;;8.65;;
39880;SDS011;25554;44.954;10.068;2023-02-28T12:30:16;12.55;;;8.68;;
39880;SDS011;25554;44.954;10.068;2023-02-28T12:33:12;12.00;;;8.68;;
39880;SDS011;25554;44.954;10.068;2023-02-28T12:35:58;23.48;;;9.60;;
39880;SDS011;25554;44.954;10.068;2023-02-28T12:38:34;10.75;;;8.38;;
39880;SDS011;25554;44.954;10.068;2023-02-28T12:41:13;13.18;;;8.35;;
39880;SDS011;25554;44.954;10.068;2023-02-28T12:44:03;15.82;;;8.43;;
39880;SDS011;25554;44.954;10.068;2023-02-28T12:46:41;12.02;;;8.93;;
39880;SDS011;25554;44.954;10.068;2023-02-28T12:49:12;12.63;;;8.52;;
39880;SDS011;25554;44.954;10.068;2023-02-28T12:51:50;15.10;;;9.18;;
39880;SDS011;25554;44.954;10.068;2023-02-28T12:54:32;14.35;;;8.40;;
39880;SDS011;25554;44.954;10.068;2023-02-28T13:00:03;15.40;;;9.95;;
39880;SDS011;25554;44.954;10.068;2023-02-28T13:02:44;16.67;;;9.13;;
39880;SDS011;25554;44.954;10.068;2023-02-28T13:10:53;13.50;;;9.13;;
39880;SDS011;25554;44.954;10.068;2023-02-28T13:13:21;13.82;;;8.77;;
39880;SDS011;25554;44.954;10.068;2023-02-28T13:16:08;12.80;;;8.85;;
39880;SDS011;25554;44.954;10.068;2023-02-28T13:18:39;14.43;;;9.65;;
39880;SDS011;25554;44.954;10.068;2023-02-28T13:21:21;15.52;;;9.52;;
39880;SDS011;25554;44.954;10.068;2023-02-28T13:45:18;15.38;;;9.43;;
39880;SDS011;25554;44.954;10.068;2023-02-28T14:06:27;14.57;;;9.57;;
39880;SDS011;25554;44.954;10.068;2023-02-28T14:11:38;13.32;;;9.65;;
39880;SDS011;25554;44.954;10.068;2023-02-28T14:14:08;13.27;;;9.60;;
39880;SDS011;25554;44.954;10.068;2023-02-28T14:16:55;14.05;;;9.38;;
39880;SDS011;25554;44.954;10.068;2023-02-28T14:19:24;13.60;;;9.48;;
39880;SDS011;25554;44.954;10.068;2023-02-28T14:37:46;12.85;;;9.35;;
39880;SDS011;25554;44.954;10.068;2023-02-28T14:40:19;14.95;;;9.55;;
39880;SDS011;25554;44.954;10.068;2023-02-28T14:42:55;17.25;;;10.35;;
39880;SDS011;25554;44.954;10.068;2023-02-28T14:45:23;14.23;;;9.50;;
39880;SDS011;25554;44.954;10.068;2023-02-28T14:47:50;14.38;;;10.13;;
39880;SDS011;25554;44.954;10.068;2023-02-28T14:50:21;16.30;;;10.65;;
39880;SDS011;25554;44.954;10.068;2023-02-28T14:52:52;14.90;;;10.13;;
39880;SDS011;25554;44.954;10.068;2023-02-28T14:55:28;17.90;;;10.65;;
39880;SDS011;25554;44.954;10.068;2023-02-28T14:57:56;15.48;;;10.23;;
39880;SDS011;25554;44.954;10.068;2023-02-28T15:02:51;14.98;;;9.77;;
39880;SDS011;25554;44.954;10.068;2023-02-28T15:08:03;15.35;;;10.68;;
39880;SDS011;25554;44.954;10.068;2023-02-28T15:10:29;14.52;;;10.43;;
39880;SDS011;25554;44.954;10.068;2023-02-28T15:13:00;15.70;;;10.70;;
39880;SDS011;25554;44.954;10.068;2023-02-28T15:18:14;15.65;;;10.25;;
39880;SDS011;25554;44.954;10.068;2023-02-28T15:21:06;14.00;;;10.57;;
39880;SDS011;25554;44.954;10.068;2023-02-28T15:23:37;18.15;;;11.38;;
39880;SDS011;25554;44.954;10.068;2023-02-28T15:26:06;13.93;;;10.57;;
39880;SDS011;25554;44.954;10.068;2023-02-28T15:28:32;16.15;;;10.07;;
39880;SDS011;25554;44.954;10.068;2023-02-28T15:33:28;15.80;;;11.15;;
39880;SDS011;25554;44.954;10.068;2023-02-28T15:36:31;15.23;;;11.48;;
39880;SDS011;25554;44.954;10.068;2023-02-28T15:38:53;16.40;;;11.43;;
39880;SDS011;25554;44.954;10.068;2023-02-28T15:47:02;15.50;;;11.05;;
39880;SDS011;25554;44.954;10.068;2023-02-28T15:52:34;19.55;;;11.05;;
39880;SDS011;25554;44.954;10.068;2023-02-28T15:57:44;19.52;;;10.80;;
39880;SDS011;25554;44.954;10.068;2023-02-28T16:00:13;16.20;;;10.55;;
39880;SDS011;25554;44.954;10.068;2023-02-28T16:02:41;18.48;;;11.05;;
39880;SDS011;25554;44.954;10.068;2023-02-28T16:10:02;17.15;;;11.45;;
39880;SDS011;25554;44.954;10.068;2023-02-28T16:12:30;17.73;;;11.98;;
39880;SDS011;25554;44.954;10.068;2023-02-28T16:14:59;19.67;;;11.95;;
39880;SDS011;25554;44.954;10.068;2023-02-28T16:17:42;19.30;;;12.05;;
39880;SDS011;25554;44.954;10.068;2023-02-28T16:20:17;24.75;;;12.85;;
39880;SDS011;25554;44.954;10.068;2023-02-28T16:22:46;19.98;;;11.63;;
39880;SDS011;25554;44.954;10.068;2023-02-28T16:25:13;20.45;;;12.82;;
39880;SDS011;25554;44.954;10.068;2023-02-28T16:27:40;17.73;;;12.73;;
39880;SDS011;25554;44.954;10.068;2023-02-28T16:30:16;19.38;;;11.25;;
39880;SDS011;25554;44.954;10.068;2023-02-28T16:32:48;15.13;;;11.13;;
39880;SDS011;25554;44.954;10.068;2023-02-28T16:35:16;20.75;;;12.82;;
39880;SDS011;25554;44.954;10.068;2023-02-28T16:37:43;24.77;;;13.50;;
39880;SDS011;25554;44.954;10.068;2023-02-28T16:40:17;17.33;;;12.23;;
39880;SDS011;25554;44.954;10.068;2023-02-28T16:42:46;21.27;;;13.48;;
39880;SDS011;25554;44.954;10.068;2023-02-28T16:45:17;21.58;;;13.02;;
39880;SDS011;25554;44.954;10.068;2023-02-28T16:47:45;20.80;;;13.02;;
39880;SDS011;25554;44.954;10.068;2023-02-28T16:50:13;21.35;;;12.90;;
39880;SDS011;25554;44.954;10.068;2023-02-28T16:53:01;20.67;;;12.48;;
39880;SDS011;25554;44.954;10.068;2023-02-28T16:55:27;23.15;;;13.65;;
39880;SDS011;25554;44.954;10.068;2023-02-28T17:00:21;20.95;;;13.60;;
39880;SDS011;25554;44.954;10.068;2023-02-28T17:02:48;22.42;;;13.30;;
39880;SDS011;25554;44.954;10.068;2023-02-28T17:07:42;18.58;;;11.90;;
39880;SDS011;25554;44.954;10.068;2023-02-28T17:12:49;23.73;;;11.80;;
39880;SDS011;25554;44.954;10.068;2023-02-28T17:15:16;20.17;;;12.65;;
39880;SDS011;25554;44.954;10.068;2023-02-28T17:17:43;28.20;;;11.80;;
39880;SDS011;25554;44.954;10.068;2023-02-28T17:20:18;18.25;;;12.45;;
39880;SDS011;25554;44.954;10.068;2023-02-28T17:22:49;23.63;;;11.50;;
39880;SDS011;25554;44.954;10.068;2023-02-28T17:25:16;17.40;;;11.68;;
39880;SDS011;25554;44.954;10.068;2023-02-28T17:27:43;24.67;;;16.10;;
39880;SDS011;25554;44.954;10.068;2023-02-28T17:30:13;29.73;;;17.23;;
39880;SDS011;25554;44.954;10.068;2023-02-28T17:32:45;33.90;;;19.13;;
39880;SDS011;25554;44.954;10.068;2023-02-28T17:35:12;22.77;;;13.57;;
39880;SDS011;25554;44.954;10.068;2023-02-28T17:37:39;21.77;;;13.05;;
39880;SDS011;25554;44.954;10.068;2023-02-28T17:40:06;30.10;;;14.40;;
39880;SDS011;25554;44.954;10.068;2023-02-28T17:42:38;46.58;;;23.50;;
39880;SDS011;25554;44.954;10.068;2023-02-28T17:47:30;50.45;;;25.10;;
39880;SDS011;25554;44.954;10.068;2023-02-28T17:49:57;49.55;;;23.67;;
39880;SDS011;25554;44.954;10.068;2023-02-28T17:54:50;46.88;;;23.60;;
39880;SDS011;25554;44.954;10.068;2023-02-28T17:59:42;29.50;;;15.93;;
39880;SDS011;25554;44.954;10.068;2023-02-28T18:02:11;41.25;;;22.60;;
39880;SDS011;25554;44.954;10.068;2023-02-28T18:04:38;35.60;;;20.52;;
39880;SDS011;25554;44.954;10.068;2023-02-28T18:07:05;30.67;;;18.83;;
39880;SDS011;25554;44.954;10.068;2023-02-28T18:09:32;26.70;;;17.13;;
39880;SDS011;25554;44.954;10.068;2023-02-28T18:11:59;30.83;;;18.42;;
39880;SDS011;25554;44.954;10.068;2023-02-28T18:14:26;27.98;;;17.83;;
39880;SDS011;25554;44.954;10.068;2023-02-28T18:16:53;23.73;;;15.18;;
39880;SDS011;25554;44.954;10.068;2023-02-28T18:19:20;22.08;;;14.02;;
39880;SDS011;25554;44.954;10.068;2023-02-28T18:21:48;27.80;;;15.13;;
39880;SDS011;25554;44.954;10.068;2023-02-28T18:24:16;32.47;;;17.02;;
39880;SDS011;25554;44.954;10.068;2023-02-28T18:26:44;35.78;;;18.95;;